Terminal Aerodrome Forecast
Issued by NWS Central Illinois

Home | Current Version | Previous Version | Text Only | Print | Product List | Glossary On
Versions: 1 2 3 4 5 6 7 8 9 10 11 12 13 14 15
920
FTUS43 KILX 041601 AAB
TAFSPI
TAF AMD
KSPI 041601Z 0416/0512 09006KT 2SM -RASN BR OVC006
      TEMPO 0417/0421 3/4SM -SN BR
     FM042100 19005KT 4SM BR VCSH OVC006
     FM050000 25005KT P6SM OVC015
     FM050500 24004KT 4SM BR SKC=

USA.gov is the U.S. government's official web portal to all federal, state and local government web resources and services.